Blue Springs, Nebraska
Current Conditions -  °F | °C
As of 3:15 PM on Saturday 22 Nov 2014 (Local Time) from KBIE Reporting Station
Overcast Overcast  
Wind Chill: 55°   Ceiling: 1100
Heat Index: 55°   Visibility: 10mi
Dew Point: 50°   Wind: 13mph
Humidity: 85%   Direction: 200°SSW
Pressure: 29.68"   Gusts: NA
Location:  40.14°N, 96.66°W
Report Text: KBIE 222115Z AUTO 20011KT 10SM OVC011 13/10 A2968 RMK AO2 T01260101
Loading
Personal Weather Stations






























Interactive Weather Map New forecast layout! Learn more

10-Day Weather Forecast

Advertisements
Track Severe Weather on mobile